Weather at Arivaca Landing Strip [CLOSED]

Public forecast

Using degrees Fahrenheit for public forecast. Weather courtesy of forecast.io.

Closest aviation weather report (METAR) to Arivaca Landing Strip

Closest report is Nogales International Airport, 27.0 nm (50.0 km) ESE. Retrieved 2021/06/25 01:54 UTC (1 hour ago):

KOLS 250154Z AUTO 27009KT 10SM CLR 32/10 A2999 RMK AO2 SLP079 T03170100

Closest aviation forecast (TAF) to Arivaca Landing Strip

Closest forecast is Nogales International Airport, 27.0 nm (50.0 km) ESE. Retrieved 2021-06-25 00:22 UTC (3 hours ago):

TAF KOLS 242320Z 2500/2524 24010G17KT P6SM SCT080 BKN200 FM250200 26009KT P6SM SCT200 FM250600 VRB04KT P6SM SKC FM252000 25010G17KT P6SM FEW090